Edinburg, Ohio
Current Conditions -  °F | °C
As of 6:18 AM on Monday 20 Oct 2014 (Local Time) from KPOV Reporting Station
Scattered Clouds Scattered Clouds  
Wind Chill: 45°   Ceiling: Unl
Heat Index: 45°   Visibility: 10mi
Dew Point: 35°   Wind: 3mph
Humidity: 69%   Direction: 190°S
Pressure: 29.96"   Gusts: NA
Location:  41.0883°N, 81.2°W
Report Text: KPOV 201018Z AUTO 19003KT 10SM SCT110 07/02 A2996 RMK AO2 T00710017
Loading
Personal Weather Stations






























Interactive Weather Map
Tropical Storm Tracking
New forecast layout! Learn more

10-Day Weather Forecast

Advertisements
Track Severe Weather on mobile